sensor_id;sensor_type;location;lat;lon;timestamp;pressure;altitude;pressure_sealevel;temperature;humidity
35443;BME280;21561;55.654;37.592;2023-06-14T00:02:07;99830.34;;;12.96;65.79
35443;BME280;21561;55.654;37.592;2023-06-14T00:04:35;99802.66;;;12.91;66.22
35443;BME280;21561;55.654;37.592;2023-06-14T00:07:03;99788.00;;;12.84;66.68
35443;BME280;21561;55.654;37.592;2023-06-14T00:09:30;99773.31;;;12.78;67.11
35443;BME280;21561;55.654;37.592;2023-06-14T00:11:57;99764.69;;;12.74;67.50
35443;BME280;21561;55.654;37.592;2023-06-14T00:14:23;99756.91;;;12.71;68.03
35443;BME280;21561;55.654;37.592;2023-06-14T00:16:50;99749.09;;;12.71;67.88
35443;BME280;21561;55.654;37.592;2023-06-14T00:19:19;99747.38;;;12.70;68.05
35443;BME280;21561;55.654;37.592;2023-06-14T00:21:47;99740.50;;;12.66;68.34
35443;BME280;21561;55.654;37.592;2023-06-14T00:24:15;99735.31;;;12.63;68.80
35443;BME280;21561;55.654;37.592;2023-06-14T00:26:42;99737.09;;;12.61;68.83
35443;BME280;21561;55.654;37.592;2023-06-14T00:29:09;99728.53;;;12.54;69.20
35443;BME280;21561;55.654;37.592;2023-06-14T00:31:35;99730.31;;;12.51;69.42
35443;BME280;21561;55.654;37.592;2023-06-14T00:34:02;99727.72;;;12.49;69.78
35443;BME280;21561;55.654;37.592;2023-06-14T00:36:29;99724.31;;;12.46;70.17
35443;BME280;21561;55.654;37.592;2023-06-14T00:38:56;99723.50;;;12.40;70.38
35443;BME280;21561;55.654;37.592;2023-06-14T00:41:23;99724.38;;;12.39;70.67
35443;BME280;21561;55.654;37.592;2023-06-14T00:43:50;99722.69;;;12.37;70.80
35443;BME280;21561;55.654;37.592;2023-06-14T00:46:17;99724.47;;;12.33;70.96
35443;BME280;21561;55.654;37.592;2023-06-14T00:48:46;99725.41;;;12.29;71.40
35443;BME280;21561;55.654;37.592;2023-06-14T00:51:14;99730.63;;;12.26;71.64
35443;BME280;21561;55.654;37.592;2023-06-14T00:53:41;99733.25;;;12.23;71.86
35443;BME280;21561;55.654;37.592;2023-06-14T00:56:13;99730.69;;;12.20;72.15
35443;BME280;21561;55.654;37.592;2023-06-14T00:58:41;99730.75;;;12.17;72.43
35443;BME280;21561;55.654;37.592;2023-06-14T01:01:09;99717.75;;;12.17;72.62
35443;BME280;21561;55.654;37.592;2023-06-14T01:03:37;99727.25;;;12.18;72.84
35443;BME280;21561;55.654;37.592;2023-06-14T01:06:40;99721.06;;;12.27;72.54
35443;BME280;21561;55.654;37.592;2023-06-14T01:09:30;99731.59;;;12.17;73.06
35443;BME280;21561;55.654;37.592;2023-06-14T01:12:04;99729.94;;;12.10;73.74
35443;BME280;21561;55.654;37.592;2023-06-14T01:14:34;99715.31;;;12.01;73.91
35443;BME280;21561;55.654;37.592;2023-06-14T01:17:02;99724.88;;;11.99;74.54
35443;BME280;21561;55.654;37.592;2023-06-14T01:19:29;99725.75;;;11.98;74.59
35443;BME280;21561;55.654;37.592;2023-06-14T01:22:00;99726.63;;;11.99;74.90
35443;BME280;21561;55.654;37.592;2023-06-14T01:24:27;99723.19;;;11.95;75.07
35443;BME280;21561;55.654;37.592;2023-06-14T01:26:58;99723.16;;;11.97;75.32
35443;BME280;21561;55.654;37.592;2023-06-14T01:29:27;99722.31;;;11.96;75.28
35443;BME280;21561;55.654;37.592;2023-06-14T01:31:59;99728.41;;;11.95;75.47
35443;BME280;21561;55.654;37.592;2023-06-14T01:34:27;99731.88;;;11.93;75.92
35443;BME280;21561;55.654;37.592;2023-06-14T01:36:54;99726.66;;;11.90;76.61
35443;BME280;21561;55.654;37.592;2023-06-14T01:39:22;99731.03;;;11.91;76.56
35443;BME280;21561;55.654;37.592;2023-06-14T01:41:50;99732.72;;;11.93;76.61
35443;BME280;21561;55.654;37.592;2023-06-14T01:44:18;99728.34;;;11.97;76.17
35443;BME280;21561;55.654;37.592;2023-06-14T01:46:46;99730.91;;;12.01;76.52
35443;BME280;21561;55.654;37.592;2023-06-14T01:49:14;99735.25;;;12.02;76.81
35443;BME280;21561;55.654;37.592;2023-06-14T01:51:41;99736.16;;;11.98;76.95
35443;BME280;21561;55.654;37.592;2023-06-14T01:54:08;99733.56;;;11.97;77.30
35443;BME280;21561;55.654;37.592;2023-06-14T01:56:35;99737.88;;;11.99;77.41
35443;BME280;21561;55.654;37.592;2023-06-14T01:59:01;99737.88;;;11.99;77.59
35443;BME280;21561;55.654;37.592;2023-06-14T02:01:28;99737.78;;;12.06;77.68
35443;BME280;21561;55.654;37.592;2023-06-14T02:03:55;99738.63;;;12.09;77.65
35443;BME280;21561;55.654;37.592;2023-06-14T02:06:24;99739.44;;;12.14;77.81
35443;BME280;21561;55.654;37.592;2023-06-14T02:08:50;99729.88;;;12.15;77.70
35443;BME280;21561;55.654;37.592;2023-06-14T02:11:17;99731.59;;;12.19;77.64
35443;BME280;21561;55.654;37.592;2023-06-14T02:13:44;99722.84;;;12.23;77.99
35443;BME280;21561;55.654;37.592;2023-06-14T02:16:12;99725.44;;;12.26;77.65
35443;BME280;21561;55.654;37.592;2023-06-14T02:18:39;99719.28;;;12.30;77.47
35443;BME280;21561;55.654;37.592;2023-06-14T02:21:06;99721.84;;;12.36;77.45
35443;BME280;21561;55.654;37.592;2023-06-14T02:23:32;99723.53;;;12.39;77.67
35443;BME280;21561;55.654;37.592;2023-06-14T02:26:01;99722.59;;;12.43;77.41
35443;BME280;21561;55.654;37.592;2023-06-14T02:28:29;99719.09;;;12.47;77.22
35443;BME280;21561;55.654;37.592;2023-06-14T02:30:56;99721.56;;;12.55;76.92
35443;BME280;21561;55.654;37.592;2023-06-14T02:33:23;99718.84;;;12.63;76.78
35443;BME280;21561;55.654;37.592;2023-06-14T02:35:51;99717.91;;;12.67;76.91
35443;BME280;21561;55.654;37.592;2023-06-14T02:38:19;99718.69;;;12.73;76.36
35443;BME280;21561;55.654;37.592;2023-06-14T02:40:46;99729.03;;;12.79;76.63
35443;BME280;21561;55.654;37.592;2023-06-14T02:43:13;99729.84;;;12.83;76.44
35443;BME280;21561;55.654;37.592;2023-06-14T02:45:40;99733.28;;;12.87;76.17
35443;BME280;21561;55.654;37.592;2023-06-14T02:48:07;99734.84;;;12.95;75.73
35443;BME280;21561;55.654;37.592;2023-06-14T02:50:34;99737.38;;;13.02;75.48
35443;BME280;21561;55.654;37.592;2023-06-14T02:53:01;99735.53;;;13.08;75.04
35443;BME280;21561;55.654;37.592;2023-06-14T02:55:29;99736.31;;;13.13;74.08
35443;BME280;21561;55.654;37.592;2023-06-14T02:57:56;99743.13;;;13.21;73.91
35443;BME280;21561;55.654;37.592;2023-06-14T03:00:23;99745.66;;;13.27;74.04
35443;BME280;21561;55.654;37.592;2023-06-14T03:02:49;99740.34;;;13.34;73.55
35443;BME280;21561;55.654;37.592;2023-06-14T03:05:18;99737.59;;;13.42;73.05
35443;BME280;21561;55.654;37.592;2023-06-14T03:07:48;99736.56;;;13.51;72.68
35443;BME280;21561;55.654;37.592;2023-06-14T03:10:17;99732.13;;;13.58;71.26
35443;BME280;21561;55.654;37.592;2023-06-14T03:12:45;99735.34;;;13.70;68.27
35443;BME280;21561;55.654;37.592;2023-06-14T03:15:12;99730.75;;;13.83;68.44
35443;BME280;21561;55.654;37.592;2023-06-14T03:17:39;99735.78;;;13.94;68.00
35443;BME280;21561;55.654;37.592;2023-06-14T03:20:12;99739.97;;;14.03;68.55
35443;BME280;21561;55.654;37.592;2023-06-14T03:22:39;99735.44;;;14.12;66.93
35443;BME280;21561;55.654;37.592;2023-06-14T03:25:08;99730.81;;;14.25;64.03
35443;BME280;21561;55.654;37.592;2023-06-14T03:27:35;99728.81;;;14.38;62.81
35443;BME280;21561;55.654;37.592;2023-06-14T03:30:03;99727.69;;;14.50;61.58
35443;BME280;21561;55.654;37.592;2023-06-14T03:32:30;99732.75;;;14.59;62.74
35443;BME280;21561;55.654;37.592;2023-06-14T03:34:59;99725.56;;;14.67;61.27
35443;BME280;21561;55.654;37.592;2023-06-14T03:37:26;99729.69;;;14.78;61.27
35443;BME280;21561;55.654;37.592;2023-06-14T03:39:53;99729.41;;;14.90;61.00
35443;BME280;21561;55.654;37.592;2023-06-14T03:42:20;99724.84;;;14.98;60.72
35443;BME280;21561;55.654;37.592;2023-06-14T03:44:47;99739.50;;;15.05;62.57
35443;BME280;21561;55.654;37.592;2023-06-14T03:47:14;99729.81;;;15.09;62.71
35443;BME280;21561;55.654;37.592;2023-06-14T03:49:41;99730.53;;;15.16;62.14
35443;BME280;21561;55.654;37.592;2023-06-14T03:52:08;99729.56;;;15.20;62.29
35443;BME280;21561;55.654;37.592;2023-06-14T03:54:35;99733.84;;;15.24;62.06
35443;BME280;21561;55.654;37.592;2023-06-14T03:57:05;99737.19;;;15.29;62.26
35443;BME280;21561;55.654;37.592;2023-06-14T03:59:32;99738.75;;;15.36;62.38
35443;BME280;21561;55.654;37.592;2023-06-14T04:01:59;99740.16;;;15.50;61.79
35443;BME280;21561;55.654;37.592;2023-06-14T04:04:26;99731.06;;;15.63;60.57
35443;BME280;21561;55.654;37.592;2023-06-14T04:06:56;99738.47;;;15.81;59.53
35443;BME280;21561;55.654;37.592;2023-06-14T04:09:24;99732.00;;;15.95;59.54
35443;BME280;21561;55.654;37.592;2023-06-14T04:11:52;99729.84;;;16.09;58.23
35443;BME280;21561;55.654;37.592;2023-06-14T04:14:19;99733.03;;;16.20;58.49
35443;BME280;21561;55.654;37.592;2023-06-14T04:16:47;99730.19;;;16.28;57.54
35443;BME280;21561;55.654;37.592;2023-06-14T04:19:15;99714.28;;;16.34;55.52
35443;BME280;21561;55.654;37.592;2023-06-14T04:21:42;99714.06;;;16.42;55.17
35443;BME280;21561;55.654;37.592;2023-06-14T04:24:09;99712.88;;;16.52;54.70
35443;BME280;21561;55.654;37.592;2023-06-14T04:26:44;99723.19;;;16.58;54.82
35443;BME280;21561;55.654;37.592;2023-06-14T04:29:18;99699.56;;;16.60;52.78
35443;BME280;21561;55.654;37.592;2023-06-14T04:31:46;99709.06;;;16.63;53.60
35443;BME280;21561;55.654;37.592;2023-06-14T04:34:13;99716.84;;;16.66;54.04
35443;BME280;21561;55.654;37.592;2023-06-14T04:36:43;99709.00;;;16.66;53.56
35443;BME280;21561;55.654;37.592;2023-06-14T04:39:16;99696.59;;;16.71;52.17
35443;BME280;21561;55.654;37.592;2023-06-14T04:41:45;99666.69;;;16.78;50.79
35443;BME280;21561;55.654;37.592;2023-06-14T04:44:13;99661.16;;;16.87;50.22
35443;BME280;21561;55.654;37.592;2023-06-14T04:46:40;99659.03;;;16.98;49.55
35443;BME280;21561;55.654;37.592;2023-06-14T04:49:14;99651.66;;;17.10;49.00
35443;BME280;21561;55.654;37.592;2023-06-14T04:51:42;99644.41;;;17.18;48.15
35443;BME280;21561;55.654;37.592;2023-06-14T04:54:09;99638.75;;;17.30;48.05
35443;BME280;21561;55.654;37.592;2023-06-14T04:56:41;99643.75;;;17.36;47.94
35443;BME280;21561;55.654;37.592;2023-06-14T04:59:09;99653.22;;;17.41;47.90
35443;BME280;21561;55.654;37.592;2023-06-14T05:01:38;99659.16;;;17.46;47.57
35443;BME280;21561;55.654;37.592;2023-06-14T05:04:05;99662.72;;;17.45;48.04
35443;BME280;21561;55.654;37.592;2023-06-14T05:06:32;99652.22;;;17.45;47.66
35443;BME280;21561;55.654;37.592;2023-06-14T05:08:59;99658.97;;;17.52;47.59
35443;BME280;21561;55.654;37.592;2023-06-14T05:11:25;99653.28;;;17.64;47.63
35443;BME280;21561;55.654;37.592;2023-06-14T05:13:53;99665.38;;;17.68;47.41
35443;BME280;21561;55.654;37.592;2023-06-14T05:16:21;99672.41;;;17.68;47.90
35443;BME280;21561;55.654;37.592;2023-06-14T05:18:49;99661.63;;;17.75;47.63
35443;BME280;21561;55.654;37.592;2023-06-14T05:21:17;99664.78;;;17.85;47.44
35443;BME280;21561;55.654;37.592;2023-06-14T05:23:45;99659.13;;;17.96;47.48
35443;BME280;21561;55.654;37.592;2023-06-14T05:26:12;99641.28;;;18.06;46.70
35443;BME280;21561;55.654;37.592;2023-06-14T05:28:39;99617.66;;;18.06;46.03
35443;BME280;21561;55.654;37.592;2023-06-14T05:31:06;99603.59;;;18.07;45.69
35443;BME280;21561;55.654;37.592;2023-06-14T05:33:33;99606.06;;;18.11;45.20
35443;BME280;21561;55.654;37.592;2023-06-14T05:36:00;99603.84;;;18.23;45.24
35443;BME280;21561;55.654;37.592;2023-06-14T05:38:27;99587.88;;;18.29;44.47
35443;BME280;21561;55.654;37.592;2023-06-14T05:40:53;99545.53;;;18.37;43.04
35443;BME280;21561;55.654;37.592;2023-06-14T05:43:20;99518.16;;;18.42;42.96
35443;BME280;21561;55.654;37.592;2023-06-14T05:45:47;99533.59;;;18.50;42.82
35443;BME280;21561;55.654;37.592;2023-06-14T05:48:14;99517.53;;;18.58;42.53
35443;BME280;21561;55.654;37.592;2023-06-14T05:50:41;99485.72;;;18.64;41.20
35443;BME280;21561;55.654;37.592;2023-06-14T05:53:08;99477.72;;;18.67;41.20
35443;BME280;21561;55.654;37.592;2023-06-14T05:55:35;99475.97;;;18.66;41.06
35443;BME280;21561;55.654;37.592;2023-06-14T05:58:03;99468.75;;;18.71;40.70
35443;BME280;21561;55.654;37.592;2023-06-14T06:00:30;99485.13;;;18.78;40.98
35443;BME280;21561;55.654;37.592;2023-06-14T06:02:57;99467.50;;;18.80;40.58
35443;BME280;21561;55.654;37.592;2023-06-14T06:05:24;99455.91;;;18.85;40.63
35443;BME280;21561;55.654;37.592;2023-06-14T06:07:51;99429.13;;;18.96;39.58
35443;BME280;21561;55.654;37.592;2023-06-14T06:10:18;99416.56;;;19.03;39.63
35443;BME280;21561;55.654;37.592;2023-06-14T06:12:45;99407.59;;;19.07;39.45
35443;BME280;21561;55.654;37.592;2023-06-14T06:15:14;99395.22;;;19.09;38.74
35443;BME280;21561;55.654;37.592;2023-06-14T06:17:41;99364.19;;;19.17;38.16
35443;BME280;21561;55.654;37.592;2023-06-14T06:20:22;99346.34;;;19.24;37.69
35443;BME280;21561;55.654;37.592;2023-06-14T06:22:55;99333.09;;;19.25;37.66
35443;BME280;21561;55.654;37.592;2023-06-14T06:25:22;99320.56;;;19.31;37.65
35443;BME280;21561;55.654;37.592;2023-06-14T06:27:49;99309.28;;;19.29;37.42
35443;BME280;21561;55.654;37.592;2023-06-14T06:30:16;99292.66;;;19.28;37.04
35443;BME280;21561;55.654;37.592;2023-06-14T06:32:43;99250.34;;;19.33;36.71
35443;BME280;21561;55.654;37.592;2023-06-14T06:35:10;99267.81;;;19.34;36.79
35443;BME280;21561;55.654;37.592;2023-06-14T06:37:41;99265.69;;;19.42;36.46
35443;BME280;21561;55.654;37.592;2023-06-14T06:40:08;99268.84;;;19.49;37.19
35443;BME280;21561;55.654;37.592;2023-06-14T06:42:36;99282.53;;;19.55;37.14
35443;BME280;21561;55.654;37.592;2023-06-14T06:45:03;99276.13;;;19.61;36.65
35443;BME280;21561;55.654;37.592;2023-06-14T06:47:32;99255.75;;;19.64;36.35
35443;BME280;21561;55.654;37.592;2023-06-14T06:49:58;99236.56;;;19.62;35.59
35443;BME280;21561;55.654;37.592;2023-06-14T06:52:25;99207.41;;;19.67;35.21
35443;BME280;21561;55.654;37.592;2023-06-14T06:54:52;99204.50;;;19.72;35.82
35443;BME280;21561;55.654;37.592;2023-06-14T06:57:21;99202.38;;;19.80;34.98
35443;BME280;21561;55.654;37.592;2023-06-14T06:59:51;99159.06;;;19.86;34.61
35443;BME280;21561;55.654;37.592;2023-06-14T07:02:18;99152.78;;;19.88;34.80
35443;BME280;21561;55.654;37.592;2023-06-14T07:04:45;99158.91;;;19.89;34.61
35443;BME280;21561;55.654;37.592;2023-06-14T07:07:12;99155.34;;;19.90;34.36
35443;BME280;21561;55.654;37.592;2023-06-14T07:09:39;99164.19;;;19.89;35.06
35443;BME280;21561;55.654;37.592;2023-06-14T07:12:07;99191.34;;;19.89;35.45
35443;BME280;21561;55.654;37.592;2023-06-14T07:14:34;99199.72;;;19.97;35.50
35443;BME280;21561;55.654;37.592;2023-06-14T07:17:01;99203.81;;;20.03;35.17
35443;BME280;21561;55.654;37.592;2023-06-14T07:19:28;99195.97;;;20.01;35.23
35443;BME280;21561;55.654;37.592;2023-06-14T07:21:55;99190.88;;;19.98;35.03
35443;BME280;21561;55.654;37.592;2023-06-14T07:24:22;99191.97;;;19.94;35.08
35443;BME280;21561;55.654;37.592;2023-06-14T07:26:49;99201.41;;;19.98;35.08
35443;BME280;21561;55.654;37.592;2023-06-14T07:29:15;99191.72;;;19.99;35.17
35443;BME280;21561;55.654;37.592;2023-06-14T07:31:43;99204.41;;;20.08;35.16
35443;BME280;21561;55.654;37.592;2023-06-14T07:34:10;99195.13;;;20.17;34.78
35443;BME280;21561;55.654;37.592;2023-06-14T07:36:36;99179.69;;;20.27;34.65
35443;BME280;21561;55.654;37.592;2023-06-14T07:39:04;99170.00;;;20.27;34.34
35443;BME280;21561;55.654;37.592;2023-06-14T07:41:33;99190.94;;;20.30;35.13
35443;BME280;21561;55.654;37.592;2023-06-14T07:43:59;99189.22;;;20.29;34.82
35443;BME280;21561;55.654;37.592;2023-06-14T07:46:26;99180.47;;;20.29;34.25
35443;BME280;21561;55.654;37.592;2023-06-14T07:48:53;99166.44;;;20.28;33.90
35443;BME280;21561;55.654;37.592;2023-06-14T07:51:20;99138.66;;;20.23;33.79
35443;BME280;21561;55.654;37.592;2023-06-14T07:53:49;99143.94;;;20.23;34.58
35443;BME280;21561;55.654;37.592;2023-06-14T07:56:16;99151.56;;;20.27;34.29
35443;BME280;21561;55.654;37.592;2023-06-14T07:58:43;99149.97;;;20.25;34.00
35443;BME280;21561;55.654;37.592;2023-06-14T08:01:10;99130.09;;;20.19;33.88
35443;BME280;21561;55.654;37.592;2023-06-14T08:03:38;99129.28;;;20.17;34.17
35443;BME280;21561;55.654;37.592;2023-06-14T08:06:06;99154.53;;;20.21;34.61
35443;BME280;21561;55.654;37.592;2023-06-14T08:08:33;99161.34;;;20.25;34.66
35443;BME280;21561;55.654;37.592;2023-06-14T08:11:00;99161.66;;;20.35;34.14
35443;BME280;21561;55.654;37.592;2023-06-14T08:13:26;99144.34;;;20.47;33.63
35443;BME280;21561;55.654;37.592;2023-06-14T08:15:53;99127.09;;;20.57;33.64
35443;BME280;21561;55.654;37.592;2023-06-14T08:18:21;99123.69;;;20.71;33.11
35443;BME280;21561;55.654;37.592;2023-06-14T08:20:48;99117.91;;;20.80;33.74
35443;BME280;21561;55.654;37.592;2023-06-14T08:23:16;99123.72;;;20.85;33.99
35443;BME280;21561;55.654;37.592;2023-06-14T08:25:45;99110.47;;;20.87;33.85
35443;BME280;21561;55.654;37.592;2023-06-14T08:28:12;99122.19;;;20.97;33.54
35443;BME280;21561;55.654;37.592;2023-06-14T08:30:39;99090.94;;;21.05;32.83
35443;BME280;21561;55.654;37.592;2023-06-14T08:33:06;99093.19;;;21.11;33.08
35443;BME280;21561;55.654;37.592;2023-06-14T08:35:42;99091.63;;;21.23;32.94
35443;BME280;21561;55.654;37.592;2023-06-14T08:38:10;99049.53;;;21.36;32.37
35443;BME280;21561;55.654;37.592;2023-06-14T08:40:39;99030.09;;;21.37;32.23
35443;BME280;21561;55.654;37.592;2023-06-14T08:43:08;99035.00;;;21.43;32.28
35443;BME280;21561;55.654;37.592;2023-06-14T08:45:36;99056.50;;;21.51;32.71
35443;BME280;21561;55.654;37.592;2023-06-14T08:48:05;99035.78;;;21.60;32.05
35443;BME280;21561;55.654;37.592;2023-06-14T08:50:34;98985.34;;;21.64;31.38
35443;BME280;21561;55.654;37.592;2023-06-14T08:53:04;98989.75;;;21.64;31.83
35443;BME280;21561;55.654;37.592;2023-06-14T08:55:31;98988.25;;;21.60;32.11
35443;BME280;21561;55.654;37.592;2023-06-14T08:58:03;98951.25;;;21.47;31.22
35443;BME280;21561;55.654;37.592;2023-06-14T09:00:32;98980.38;;;21.45;31.95
35443;BME280;21561;55.654;37.592;2023-06-14T09:03:00;98991.56;;;21.49;32.06
35443;BME280;21561;55.654;37.592;2023-06-14T09:05:27;98984.47;;;21.64;32.03
35443;BME280;21561;55.654;37.592;2023-06-14T09:07:55;99001.25;;;21.77;31.73
35443;BME280;21561;55.654;37.592;2023-06-14T09:10:32;98997.41;;;21.96;31.89
35443;BME280;21561;55.654;37.592;2023-06-14T09:13:05;98984.34;;;22.07;31.98
35443;BME280;21561;55.654;37.592;2023-06-14T09:15:32;98970.53;;;22.16;31.45
35443;BME280;21561;55.654;37.592;2023-06-14T09:18:01;98958.84;;;22.20;31.28
35443;BME280;21561;55.654;37.592;2023-06-14T09:20:30;98952.41;;;22.24;31.12
35443;BME280;21561;55.654;37.592;2023-06-14T09:22:57;98937.44;;;22.38;31.05
35443;BME280;21561;55.654;37.592;2023-06-14T09:25:24;98922.84;;;22.45;30.15
35443;BME280;21561;55.654;37.592;2023-06-14T09:28:09;98904.38;;;22.58;29.92
35443;BME280;21561;55.654;37.592;2023-06-14T09:30:37;98889.03;;;22.50;30.59
35443;BME280;21561;55.654;37.592;2023-06-14T09:33:05;98869.59;;;22.51;29.38
35443;BME280;21561;55.654;37.592;2023-06-14T09:35:32;98860.66;;;22.91;29.66
35443;BME280;21561;55.654;37.592;2023-06-14T09:37:59;98841.47;;;23.50;28.89
35443;BME280;21561;55.654;37.592;2023-06-14T09:40:27;98754.38;;;23.58;28.15
35443;BME280;21561;55.654;37.592;2023-06-14T09:42:54;98786.69;;;23.74;28.81
35443;BME280;21561;55.654;37.592;2023-06-14T09:45:25;98739.59;;;24.13;27.72
35443;BME280;21561;55.654;37.592;2023-06-14T09:47:58;98728.81;;;24.94;27.41
35443;BME280;21561;55.654;37.592;2023-06-14T09:50:27;98657.81;;;26.03;25.70
35443;BME280;21561;55.654;37.592;2023-06-14T09:53:02;98558.59;;;27.01;24.99
35443;BME280;21561;55.654;37.592;2023-06-14T09:55:34;98460.25;;;27.75;23.57
35443;BME280;21561;55.654;37.592;2023-06-14T09:58:05;98371.28;;;27.76;22.96
35443;BME280;21561;55.654;37.592;2023-06-14T10:00:35;98392.81;;;28.28;23.55
35443;BME280;21561;55.654;37.592;2023-06-14T10:05:41;98277.00;;;30.00;21.33
35443;BME280;21561;55.654;37.592;2023-06-14T10:08:09;98217.28;;;30.72;20.16
35443;BME280;21561;55.654;37.592;2023-06-14T10:10:39;98167.34;;;31.33;20.20
35443;BME280;21561;55.654;37.592;2023-06-14T10:13:07;98097.34;;;31.36;18.65
35443;BME280;21561;55.654;37.592;2023-06-14T10:15:57;98108.16;;;32.26;20.39
35443;BME280;21561;55.654;37.592;2023-06-14T10:24:40;98004.63;;;33.24;17.87
35443;BME280;21561;55.654;37.592;2023-06-14T10:27:08;98007.31;;;33.59;17.83
35443;BME280;21561;55.654;37.592;2023-06-14T10:32:23;97940.56;;;34.31;16.46
35443;BME280;21561;55.654;37.592;2023-06-14T10:35:06;97877.63;;;34.32;16.21
35443;BME280;21561;55.654;37.592;2023-06-14T10:37:33;97924.53;;;33.96;17.05
35443;BME280;21561;55.654;37.592;2023-06-14T10:40:00;97926.91;;;34.53;16.32
35443;BME280;21561;55.654;37.592;2023-06-14T10:42:32;97862.72;;;34.50;15.77
35443;BME280;21561;55.654;37.592;2023-06-14T10:45:00;97862.53;;;33.56;16.38
35443;BME280;21561;55.654;37.592;2023-06-14T10:47:34;97918.13;;;34.04;16.89
35443;BME280;21561;55.654;37.592;2023-06-14T10:50:07;97878.25;;;34.34;15.77
35443;BME280;21561;55.654;37.592;2023-06-14T10:52:38;97798.19;;;32.37;16.62
35443;BME280;21561;55.654;37.592;2023-06-14T10:55:12;97886.81;;;31.78;17.51
35443;BME280;21561;55.654;37.592;2023-06-14T10:57:50;97897.63;;;30.43;17.99
35443;BME280;21561;55.654;37.592;2023-06-14T11:00:23;98008.75;;;30.77;19.08
35443;BME280;21561;55.654;37.592;2023-06-14T11:05:54;97986.47;;;31.37;18.14
35443;BME280;21561;55.654;37.592;2023-06-14T11:08:33;98017.00;;;31.66;18.51
35443;BME280;21561;55.654;37.592;2023-06-14T11:11:09;98005.81;;;32.29;17.49
35443;BME280;21561;55.654;37.592;2023-06-14T11:13:41;97929.25;;;32.33;16.79
35443;BME280;21561;55.654;37.592;2023-06-14T11:16:14;97936.84;;;32.51;17.08
35443;BME280;21561;55.654;37.592;2023-06-14T11:18:42;97886.41;;;32.18;17.31
35443;BME280;21561;55.654;37.592;2023-06-14T11:21:10;97862.16;;;31.90;16.83
35443;BME280;21561;55.654;37.592;2023-06-14T11:23:37;97852.13;;;31.77;16.41
35443;BME280;21561;55.654;37.592;2023-06-14T11:26:04;97889.06;;;31.96;16.83
35443;BME280;21561;55.654;37.592;2023-06-14T11:28:40;97915.50;;;32.21;17.34
35443;BME280;21561;55.654;37.592;2023-06-14T11:31:08;97941.41;;;32.29;17.70
35443;BME280;21561;55.654;37.592;2023-06-14T11:33:36;97950.50;;;33.27;17.14
35443;BME280;21561;55.654;37.592;2023-06-14T11:36:06;97918.09;;;33.84;16.33
35443;BME280;21561;55.654;37.592;2023-06-14T11:38:36;97883.22;;;34.31;16.25
35443;BME280;21561;55.654;37.592;2023-06-14T11:41:04;97854.81;;;34.95;15.67
35443;BME280;21561;55.654;37.592;2023-06-14T11:43:31;97822.34;;;35.35;15.21
35443;BME280;21561;55.654;37.592;2023-06-14T11:46:00;97796.00;;;35.76;14.87
35443;BME280;21561;55.654;37.592;2023-06-14T11:48:41;97773.56;;;36.32;14.68
35443;BME280;21561;55.654;37.592;2023-06-14T11:51:09;97753.84;;;36.50;14.33
35443;BME280;21561;55.654;37.592;2023-06-14T11:53:36;97733.69;;;36.53;14.44
35443;BME280;21561;55.654;37.592;2023-06-14T11:56:03;97727.47;;;36.71;14.39
35443;BME280;21561;55.654;37.592;2023-06-14T11:58:30;97690.31;;;36.47;14.18
35443;BME280;21561;55.654;37.592;2023-06-14T12:00:57;97702.56;;;36.68;14.55
35443;BME280;21561;55.654;37.592;2023-06-14T12:03:25;97694.72;;;36.97;14.03
35443;BME280;21561;55.654;37.592;2023-06-14T12:06:07;97710.50;;;37.85;14.44
35443;BME280;21561;55.654;37.592;2023-06-14T12:08:38;97647.47;;;37.96;13.06
35443;BME280;21561;55.654;37.592;2023-06-14T12:11:11;97624.59;;;38.15;12.92
35443;BME280;21561;55.654;37.592;2023-06-14T12:13:38;97593.19;;;37.91;12.96
35443;BME280;21561;55.654;37.592;2023-06-14T12:16:11;97590.97;;;37.99;12.60
35443;BME280;21561;55.654;37.592;2023-06-14T12:18:39;97596.25;;;37.82;13.09
35443;BME280;21561;55.654;37.592;2023-06-14T12:21:08;97604.84;;;37.79;13.32
35443;BME280;21561;55.654;37.592;2023-06-14T12:23:47;97614.59;;;38.04;13.29
35443;BME280;21561;55.654;37.592;2023-06-14T12:26:18;97739.72;;;38.06;13.19
35443;BME280;21561;55.654;37.592;2023-06-14T12:28:46;97728.41;;;37.86;12.35
35443;BME280;21561;55.654;37.592;2023-06-14T12:31:15;97738.97;;;37.15;13.52
35443;BME280;21561;55.654;37.592;2023-06-14T12:33:43;97752.81;;;37.06;13.32
35443;BME280;21561;55.654;37.592;2023-06-14T12:36:13;97721.56;;;35.93;12.99
35443;BME280;21561;55.654;37.592;2023-06-14T12:38:40;97761.34;;;34.89;14.59
35443;BME280;21561;55.654;37.592;2023-06-14T12:41:06;97787.28;;;33.70;14.85
35443;BME280;21561;55.654;37.592;2023-06-14T12:43:34;97837.81;;;32.91;15.98
35443;BME280;21561;55.654;37.592;2023-06-14T12:46:01;97874.38;;;33.20;15.63
35443;BME280;21561;55.654;37.592;2023-06-14T12:48:28;97917.69;;;33.87;16.36
35443;BME280;21561;55.654;37.592;2023-06-14T12:50:58;97924.03;;;34.88;15.42
35443;BME280;21561;55.654;37.592;2023-06-14T12:53:25;97911.00;;;35.70;15.12
35443;BME280;21561;55.654;37.592;2023-06-14T12:55:52;97870.31;;;35.06;14.85
35443;BME280;21561;55.654;37.592;2023-06-14T12:58:18;97910.34;;;34.56;15.77
35443;BME280;21561;55.654;37.592;2023-06-14T13:00:50;97908.72;;;34.55;15.95
35443;BME280;21561;55.654;37.592;2023-06-14T13:03:17;97908.00;;;33.99;15.72
35443;BME280;21561;55.654;37.592;2023-06-14T13:05:44;97901.75;;;32.74;16.49
35443;BME280;21561;55.654;37.592;2023-06-14T13:08:11;97955.47;;;32.31;16.59
35443;BME280;21561;55.654;37.592;2023-06-14T13:10:38;97999.47;;;33.01;17.04
35443;BME280;21561;55.654;37.592;2023-06-14T13:13:05;97981.56;;;33.37;15.95